Observations for NANTES CHATEAU, France (LFRS)

LFRS 171900Z AUTO 26005KT 220V280 CAVOK 21/12 Q1018 NOSIG   
LFRS 171830Z AUTO 27008KT CAVOK 22/12 Q1018 NOSIG   
LFRS 171800Z AUTO 28008KT CAVOK 23/12 Q1018 NOSIG   
LFRS 171730Z AUTO 28009KT 250V310 CAVOK 23/12 Q1018 NOSIG   
LFRS 171700Z AUTO 28008KT 240V310 CAVOK 24/13 Q1018 NOSIG   
LFRS 171630Z AUTO 26008KT 220V300 CAVOK 24/13 Q1018 NOSIG   
LFRS 171600Z AUTO 26009KT 210V290 CAVOK 24/13 Q1018 NOSIG   
LFRS 171530Z AUTO 24006KT 190V290 CAVOK 25/12 Q1018 NOSIG   
LFRS 171500Z AUTO 29006KT 250V010 CAVOK 25/13 Q1018 NOSIG   
LFRS 171430Z AUTO VRB05KT CAVOK 25/12 Q1018 NOSIG   
LFRS 171400Z AUTO 32006KT 250V350 CAVOK 25/11 Q1018 NOSIG   
LFRS 171330Z AUTO VRB03KT CAVOK 25/12 Q1018 NOSIG   
LFRS 171300Z AUTO 26006KT 210V310 CAVOK 25/11 Q1018 NOSIG   
LFRS 171230Z AUTO 23005KT 190V270 9999 FEW046 BKN060 24/13 Q1019 NOSIG  
LFRS 171200Z AUTO 28005KT 220V310 9999 FEW047 24/13 Q1019 NOSIG 
LFRS 171130Z AUTO 26006KT 230V300 9999 FEW041 SCT047 BKN058 23/13 Q1019 NOSIG   
LFRS 171100Z AUTO 25005KT 170V340 9999 FEW040 SCT056 23/14 Q1019 NOSIG  
LFRS 171030Z AUTO 27004KT 210V330 CAVOK 22/12 Q1019 NOSIG   
LFRS 171000Z AUTO 24003KT 190V290 9999 FEW033 SCT056 23/14 Q1019 NOSIG  
LFRS 170930Z AUTO VRB02KT 9999 BKN036 BKN045 BKN060 22/14 Q1019 NOSIG   
LFRS 170900Z AUTO VRB03KT 9999 BKN031 OVC062 21/14 Q1019 NOSIG  
LFRS 170830Z AUTO 29004KT 250V320 9999 SCT028 BKN062 21/14 Q1019 NOSIG  
LFRS 170800Z AUTO VRB03KT 9999 FEW024 21/14 Q1019 NOSIG 
LFRS 170730Z AUTO 35005KT 310V040 CAVOK 20/14 Q1019 NOSIG   
LFRS 170700Z AUTO 36006KT 280V040 CAVOK 19/14 Q1019 NOSIG   
LFRS 170630Z AUTO 35004KT 330V030 9999 FEW029 18/15 Q1019 NOSIG 
LFRS 170600Z AUTO 35004KT 310V040 9999 OVC027 18/15 Q1019 TEMPO BKN012  
LFRS 170530Z AUTO 32004KT 280V360 9999 SCT012 BKN019 BKN038 17/16 Q1018 TEMPO BKN012
LFRS 170500Z AUTO VRB02KT 9999 BKN012 BKN027 BKN045 17/16 Q1018 BECMG NSC   
LFRS 170430Z AUTO VRB03KT 9999 OVC013 17/16 Q1018 BECMG NSC 
LFRS 170400Z AUTO 23002KT 9999 BKN012 BKN024 BKN050 17/16 Q1018 BECMG NSC   
LFRS 170330Z AUTO 24004KT 9999 SCT011 BKN021 OVC052 17/16 Q1018 NOSIG   
LFRS 170300Z AUTO 25004KT 9999 BKN008 OVC017 17/16 Q1018 BECMG NSC  
LFRS 170230Z AUTO 25005KT 9999 BKN008 BKN042 BKN052 17/16 Q1018 BECMG NSC   
LFRS 170200Z AUTO 25003KT 9999 FEW038 BKN045 OVC052 18/17 Q1018 NOSIG   
LFRS 170130Z AUTO 26004KT 9999 BKN042 OVC050 18/17 Q1018 NOSIG  
LFRS 170100Z AUTO 22003KT 9999 FEW011 SCT020 BKN027 18/17 Q1018 NOSIG   
LFRS 170030Z AUTO 24003KT 9999 BKN013 OVC042 17/17 Q1018 BECMG NSC  
LFRS 170000Z AUTO VRB01KT 9999 OVC019 17/16 Q1018 NOSIG 
LFRS 162330Z AUTO 23003KT 9999 FEW020 17/16 Q1018 NOSIG 
LFRS 162300Z AUTO 24003KT CAVOK 17/16 Q1018 NOSIG   
LFRS 162230Z AUTO 26003KT CAVOK 18/16 Q1018 NOSIG   
LFRS 162200Z AUTO 26004KT CAVOK 18/16 Q1018 NOSIG   
LFRS 162130Z AUTO 27005KT CAVOK 19/16 Q1018 NOSIG   
LFRS 162100Z AUTO 27007KT CAVOK 19/16 Q1017 NOSIG   
LFRS 162030Z AUTO 27006KT CAVOK 19/16 Q1017 NOSIG   
LFRS 162000Z AUTO 27009KT CAVOK 20/16 Q1017 NOSIG   
LFRS 161930Z AUTO 27010KT CAVOK 21/16 Q1017 NOSIG   
LFRS 161900Z AUTO 27012KT CAVOK 22/16 Q1016 NOSIG   
LFRS 161830Z AUTO 27013KT CAVOK 22/16 Q1016 NOSIG